createdAt,value
2023-05-04T00:01:30.586Z,10.52
2023-05-04T00:03:57.497Z,12.10
2023-05-04T00:06:24.388Z,11.13
2023-05-04T00:08:51.104Z,12.38
2023-05-04T00:11:17.725Z,10.98
2023-05-04T00:13:44.261Z,9.52
2023-05-04T00:16:11.282Z,9.35
2023-05-04T00:18:38.659Z,10.32
2023-05-04T00:21:05.471Z,10.57
2023-05-04T00:23:32.094Z,11.63
2023-05-04T00:25:59.618Z,10.88
2023-05-04T00:28:26.565Z,9.98
2023-05-04T00:30:53.914Z,12.02
2023-05-04T00:33:21.397Z,12.68
2023-05-04T00:35:48.196Z,13.93
2023-05-04T00:38:16.548Z,10.18
2023-05-04T00:40:43.723Z,12.02
2023-05-04T00:43:11.389Z,12.30
2023-05-04T00:45:38.414Z,12.07
2023-05-04T00:48:06.440Z,12.57
2023-05-04T00:50:33.764Z,13.15
2023-05-04T00:53:05.701Z,11.07
2023-05-04T00:55:32.495Z,12.45
2023-05-04T00:57:59.677Z,12.27
2023-05-04T01:00:26.420Z,13.68
2023-05-04T01:02:53.261Z,13.52
2023-05-04T01:05:22.432Z,13.23
2023-05-04T01:08:02.132Z,12.98
2023-05-04T01:10:34.711Z,10.43
2023-05-04T01:13:06.387Z,12.07
2023-05-04T01:15:35.648Z,12.10
2023-05-04T01:18:02.736Z,12.75
2023-05-04T01:20:29.710Z,13.63
2023-05-04T01:22:57.061Z,15.60
2023-05-04T01:25:27.449Z,12.13
2023-05-04T01:30:30.840Z,13.75
2023-05-04T01:32:58.266Z,16.33
2023-05-04T01:35:25.329Z,9.80
2023-05-04T01:37:51.947Z,14.77
2023-05-04T01:40:18.597Z,12.52
2023-05-04T01:42:45.196Z,14.63
2023-05-04T01:45:12.229Z,11.15
2023-05-04T01:47:38.974Z,10.90
2023-05-04T01:50:06.356Z,9.77
2023-05-04T01:52:33.122Z,12.95
2023-05-04T01:54:59.711Z,12.50
2023-05-04T01:57:26.431Z,13.38
2023-05-04T01:59:53.035Z,10.82
2023-05-04T02:02:19.856Z,13.90
2023-05-04T02:04:46.948Z,10.70
2023-05-04T02:07:13.795Z,12.05
2023-05-04T02:09:42.632Z,10.63
2023-05-04T02:12:09.597Z,10.00
2023-05-04T02:14:37.061Z,10.77
2023-05-04T02:17:04.142Z,9.38
2023-05-04T02:19:30.892Z,15.50
2023-05-04T02:21:58.475Z,10.75
2023-05-04T02:24:25.288Z,8.88
2023-05-04T02:26:51.860Z,9.38
2023-05-04T02:29:18.456Z,8.73
2023-05-04T02:31:45.141Z,10.60
2023-05-04T02:34:13.913Z,10.68
2023-05-04T02:36:47.091Z,10.10
2023-05-04T02:39:14.200Z,8.63
2023-05-04T02:41:40.830Z,9.57
2023-05-04T02:44:07.481Z,9.88
2023-05-04T02:46:34.127Z,12.48
2023-05-04T02:49:01.109Z,11.63
2023-05-04T02:51:27.677Z,14.23
2023-05-04T02:53:54.359Z,12.35
2023-05-04T02:56:21.504Z,9.10
2023-05-04T02:58:48.308Z,8.02
2023-05-04T03:01:15.026Z,12.48
2023-05-04T03:03:41.720Z,9.20
2023-05-04T03:06:08.313Z,13.00
2023-05-04T03:08:35.966Z,12.13
2023-05-04T03:11:02.688Z,10.45
2023-05-04T03:13:29.566Z,11.00
2023-05-04T03:15:56.508Z,9.80
2023-05-04T03:18:23.425Z,8.10
2023-05-04T03:20:50.672Z,10.18
2023-05-04T03:23:19.981Z,14.52
2023-05-04T03:25:46.691Z,11.00
2023-05-04T03:28:14.512Z,8.07
2023-05-04T03:30:41.922Z,12.38
2023-05-04T03:33:09.636Z,9.95
2023-05-04T03:35:36.285Z,9.75
2023-05-04T03:38:03.949Z,9.93
2023-05-04T03:40:31.339Z,10.70
2023-05-04T03:42:57.957Z,7.72
2023-05-04T03:45:28.406Z,7.93
2023-05-04T03:47:55.762Z,8.65
2023-05-04T03:50:23.022Z,10.88
2023-05-04T03:52:49.833Z,11.32
2023-05-04T03:55:19.158Z,10.57
2023-05-04T04:00:17.171Z,9.13
2023-05-04T04:02:51.290Z,9.00
2023-05-04T04:05:19.993Z,8.82
2023-05-04T04:07:48.790Z,11.60
2023-05-04T04:10:15.493Z,12.02
2023-05-04T04:12:42.095Z,10.57
2023-05-04T04:15:09.071Z,10.15
2023-05-04T04:17:35.761Z,9.57
2023-05-04T04:20:02.830Z,10.57
2023-05-04T04:22:29.478Z,9.38
2023-05-04T04:24:56.339Z,11.10
2023-05-04T04:27:22.949Z,9.20
2023-05-04T04:29:49.660Z,10.30
2023-05-04T04:32:16.279Z,8.60
2023-05-04T04:34:43.368Z,9.02
2023-05-04T04:37:10.085Z,11.48
2023-05-04T04:39:36.762Z,10.55
2023-05-04T04:42:03.827Z,9.10
2023-05-04T04:44:31.425Z,9.98
2023-05-04T04:46:58.105Z,14.10
2023-05-04T04:49:24.674Z,14.02
2023-05-04T04:51:51.575Z,9.05
2023-05-04T04:54:18.187Z,9.77
2023-05-04T04:56:46.306Z,15.48
2023-05-04T04:59:14.143Z,8.80
2023-05-04T05:01:42.120Z,8.18
2023-05-04T05:04:08.879Z,10.55
2023-05-04T05:06:36.559Z,10.05
2023-05-04T05:09:03.446Z,9.55
2023-05-04T05:11:30.240Z,9.85
2023-05-04T05:13:56.825Z,9.40
2023-05-04T05:16:23.771Z,8.50
2023-05-04T05:18:50.407Z,8.30
2023-05-04T05:21:17.005Z,10.23
2023-05-04T05:23:43.605Z,7.78
2023-05-04T05:26:10.323Z,8.90
2023-05-04T05:28:37.256Z,11.55
2023-05-04T05:31:04.120Z,9.15
2023-05-04T05:33:30.835Z,7.38
2023-05-04T05:35:57.513Z,9.07
2023-05-04T05:38:24.317Z,10.50
2023-05-04T05:40:51.055Z,10.00
2023-05-04T05:43:17.854Z,11.65
2023-05-04T05:45:44.483Z,9.68
2023-05-04T05:48:11.403Z,9.27
2023-05-04T05:50:38.090Z,8.38
2023-05-04T05:53:04.935Z,7.93
2023-05-04T05:55:31.572Z,9.05
2023-05-04T05:57:59.921Z,10.40
2023-05-04T06:00:26.660Z,7.90
2023-05-04T06:02:53.740Z,8.82
2023-05-04T06:05:21.014Z,9.25
2023-05-04T06:07:47.633Z,10.45
2023-05-04T06:10:14.283Z,8.45
2023-05-04T06:12:41.075Z,10.27
2023-05-04T06:15:09.237Z,7.53
2023-05-04T06:17:36.244Z,9.38
2023-05-04T06:20:03.033Z,8.48
2023-05-04T06:22:29.897Z,9.35
2023-05-04T06:25:02.117Z,9.10
2023-05-04T06:27:32.535Z,12.02
2023-05-04T06:29:59.221Z,11.07
2023-05-04T06:32:26.498Z,8.65
2023-05-04T06:34:55.251Z,8.65
2023-05-04T06:37:22.370Z,10.73
2023-05-04T06:39:48.979Z,7.22
2023-05-04T06:42:15.705Z,10.93
2023-05-04T06:44:42.557Z,8.18
2023-05-04T06:47:09.201Z,11.32
2023-05-04T06:49:36.033Z,9.50
2023-05-04T06:52:02.806Z,9.90
2023-05-04T06:54:29.534Z,8.88
2023-05-04T06:56:56.595Z,10.50
2023-05-04T06:59:23.339Z,7.20
2023-05-04T07:01:50.007Z,8.82
2023-05-04T07:04:17.043Z,7.75
2023-05-04T07:06:44.202Z,8.75
2023-05-04T07:09:10.953Z,8.50
2023-05-04T07:11:37.528Z,7.20
2023-05-04T07:14:04.339Z,10.60
2023-05-04T07:16:32.885Z,10.15
2023-05-04T07:18:59.873Z,13.77
2023-05-04T07:21:28.405Z,8.27
2023-05-04T07:23:55.982Z,11.45
2023-05-04T07:26:23.126Z,8.05
2023-05-04T07:28:49.881Z,7.03
2023-05-04T07:31:16.495Z,10.40
2023-05-04T07:33:43.516Z,8.00
2023-05-04T07:36:10.389Z,9.45
2023-05-04T07:38:37.079Z,9.23
2023-05-04T07:41:03.750Z,7.65
2023-05-04T07:43:30.400Z,10.48
2023-05-04T07:45:57.117Z,7.57
2023-05-04T07:48:26.183Z,8.02
2023-05-04T07:50:53.732Z,9.50
2023-05-04T07:53:25.401Z,11.98
2023-05-04T07:55:54.211Z,8.93
2023-05-04T07:58:20.906Z,13.27
2023-05-04T08:00:47.523Z,8.40
2023-05-04T08:03:14.293Z,12.35
2023-05-04T08:05:41.380Z,8.13
2023-05-04T08:08:08.875Z,12.60
2023-05-04T08:10:36.982Z,9.88
2023-05-04T08:13:05.239Z,9.50
2023-05-04T08:15:31.953Z,8.57
2023-05-04T08:17:58.630Z,10.18
2023-05-04T08:20:25.311Z,8.27
2023-05-04T08:22:52.059Z,8.90
2023-05-04T08:25:18.769Z,9.48
2023-05-04T08:27:46.016Z,8.82
2023-05-04T08:30:13.181Z,7.45
2023-05-04T08:32:40.186Z,10.77
2023-05-04T08:35:07.550Z,9.85
2023-05-04T08:37:34.297Z,11.75
2023-05-04T08:40:00.929Z,8.43
2023-05-04T08:42:29.494Z,6.18
2023-05-04T08:44:57.216Z,6.65
2023-05-04T08:47:28.885Z,7.05
2023-05-04T08:49:56.590Z,8.13
2023-05-04T08:52:27.068Z,11.43
2023-05-04T08:54:55.629Z,6.65
2023-05-04T08:57:25.647Z,7.53
2023-05-04T08:59:53.799Z,8.43
2023-05-04T09:02:24.390Z,7.95
2023-05-04T09:04:52.558Z,7.05
2023-05-04T09:07:20.491Z,7.55
2023-05-04T09:09:48.308Z,6.07
2023-05-04T09:12:14.983Z,8.13
2023-05-04T09:14:41.611Z,7.75
2023-05-04T09:17:17.641Z,10.18
2023-05-04T09:19:44.601Z,7.65
2023-05-04T09:22:17.961Z,6.60
2023-05-04T09:24:45.613Z,9.25
2023-05-04T09:27:16.056Z,8.45
2023-05-04T09:29:43.024Z,7.72
2023-05-04T09:32:14.276Z,5.70
2023-05-04T09:34:51.401Z,7.10
2023-05-04T09:37:20.728Z,6.65
2023-05-04T09:39:59.737Z,7.20
2023-05-04T09:42:27.167Z,8.13
2023-05-04T09:45:07.361Z,10.13
2023-05-04T09:47:36.236Z,7.55
2023-05-04T09:50:22.425Z,6.68
2023-05-04T09:52:50.003Z,6.32
2023-05-04T09:55:18.489Z,6.32
2023-05-04T09:57:46.983Z,5.55
2023-05-04T10:00:16.235Z,5.95
2023-05-04T10:02:44.041Z,3.35
2023-05-04T10:05:14.681Z,12.15
2023-05-04T10:07:42.691Z,6.30
2023-05-04T10:10:12.023Z,7.25
2023-05-04T10:12:38.907Z,5.32
2023-05-04T10:15:09.735Z,6.40
2023-05-04T10:17:48.554Z,4.85
2023-05-04T10:20:26.387Z,5.75
2023-05-04T10:22:56.950Z,4.55
2023-05-04T10:26:03.581Z,5.68
2023-05-04T10:28:30.372Z,4.35
2023-05-04T10:31:00.362Z,4.25
2023-05-04T10:33:38.079Z,4.00
2023-05-04T10:36:04.917Z,3.80
2023-05-04T10:38:33.122Z,6.38
2023-05-04T10:40:59.747Z,3.63
2023-05-04T10:43:28.875Z,4.38
2023-05-04T10:45:57.420Z,4.28
2023-05-04T10:48:35.055Z,3.00
2023-05-04T10:51:01.736Z,3.55
2023-05-04T10:53:33.085Z,3.88
2023-05-04T10:56:00.047Z,3.05
2023-05-04T10:58:29.793Z,2.65
2023-05-04T11:00:56.563Z,2.45
2023-05-04T11:03:24.930Z,2.83
2023-05-04T11:05:55.380Z,3.17
2023-05-04T11:08:24.275Z,3.50
2023-05-04T11:11:05.122Z,3.08
2023-05-04T11:13:34.830Z,2.85
2023-05-04T11:16:01.985Z,4.18
2023-05-04T11:18:30.891Z,3.92
2023-05-04T11:20:58.383Z,2.63
2023-05-04T11:23:25.159Z,2.60
2023-05-04T11:25:51.839Z,4.47
2023-05-04T11:28:18.873Z,3.35
2023-05-04T11:30:47.554Z,5.00
2023-05-04T11:33:15.674Z,3.67
2023-05-04T11:35:43.892Z,2.00
2023-05-04T11:38:11.184Z,1.70
2023-05-04T11:40:41.125Z,1.80
2023-05-04T11:43:09.791Z,1.42
2023-05-04T11:45:36.604Z,2.10
2023-05-04T11:48:04.441Z,1.85
2023-05-04T11:50:31.630Z,1.80
2023-05-04T11:53:06.708Z,3.70
2023-05-04T11:55:33.479Z,2.53
2023-05-04T11:58:08.230Z,4.25
2023-05-04T12:00:37.459Z,1.80
2023-05-04T12:03:05.979Z,2.00
2023-05-04T12:05:34.542Z,2.38
2023-05-04T12:08:03.251Z,2.35
2023-05-04T12:10:34.736Z,2.30
2023-05-04T12:13:02.134Z,2.83
2023-05-04T12:15:34.434Z,2.30
2023-05-04T12:18:03.032Z,3.97
2023-05-04T12:20:30.551Z,2.63
2023-05-04T12:22:57.735Z,2.65
2023-05-04T12:25:24.867Z,3.13
2023-05-04T12:27:52.154Z,1.90
2023-05-04T12:30:19.009Z,2.42
2023-05-04T12:32:46.045Z,4.25
2023-05-04T12:35:12.771Z,2.10
2023-05-04T12:37:39.667Z,3.45
2023-05-04T12:40:20.869Z,3.03
2023-05-04T12:42:54.604Z,2.55
2023-05-04T12:45:22.483Z,3.90
2023-05-04T12:47:49.318Z,2.55
2023-05-04T12:50:16.585Z,3.33
2023-05-04T12:52:43.236Z,2.65
2023-05-04T12:55:10.282Z,3.08
2023-05-04T12:57:37.631Z,3.17
2023-05-04T13:00:07.192Z,3.17
2023-05-04T13:02:33.900Z,3.22
2023-05-04T13:05:00.788Z,2.42
2023-05-04T13:07:27.384Z,2.60
2023-05-04T13:09:53.989Z,2.00
2023-05-04T13:12:20.733Z,2.95
2023-05-04T13:14:47.468Z,4.88
2023-05-04T13:17:14.987Z,2.08
2023-05-04T13:19:41.938Z,3.53
2023-05-04T13:22:08.559Z,2.92
2023-05-04T13:24:35.560Z,2.42
2023-05-04T13:27:02.888Z,2.42
2023-05-04T13:29:29.543Z,2.95
2023-05-04T13:31:56.337Z,3.35
2023-05-04T13:34:23.098Z,4.63
2023-05-04T13:36:49.882Z,3.58
2023-05-04T13:39:21.005Z,2.53
2023-05-04T13:41:48.644Z,3.70
2023-05-04T13:44:15.279Z,2.85
2023-05-04T13:46:42.261Z,4.00
2023-05-04T13:49:08.974Z,3.30
2023-05-04T13:51:37.405Z,2.60
2023-05-04T13:54:04.145Z,3.03
2023-05-04T13:56:30.980Z,2.67
2023-05-04T13:58:57.579Z,2.58
2023-05-04T14:01:24.797Z,2.70
2023-05-04T14:03:51.428Z,2.63
2023-05-04T14:06:18.016Z,4.38
2023-05-04T14:08:44.613Z,5.68
2023-05-04T14:11:11.231Z,7.40
2023-05-04T14:13:37.865Z,3.95
2023-05-04T14:16:04.648Z,4.22
2023-05-04T14:18:32.824Z,2.85
2023-05-04T14:20:59.681Z,4.65
2023-05-04T14:23:26.700Z,2.20
2023-05-04T14:25:55.672Z,2.75
2023-05-04T14:28:23.715Z,2.63
2023-05-04T14:30:50.863Z,2.63
2023-05-04T14:33:18.094Z,3.40
2023-05-04T14:35:47.841Z,3.22
2023-05-04T14:38:15.287Z,2.78
2023-05-04T14:40:42.309Z,2.50
2023-05-04T14:43:09.309Z,3.45
2023-05-04T14:45:35.958Z,3.30
2023-05-04T14:48:02.799Z,2.47
2023-05-04T14:50:29.602Z,4.47
2023-05-04T14:52:56.213Z,3.45
2023-05-04T14:55:22.873Z,4.00
2023-05-04T14:57:49.459Z,4.65
2023-05-04T15:00:17.200Z,2.60
2023-05-04T15:02:44.209Z,4.25
2023-05-04T15:05:12.463Z,4.43
2023-05-04T15:07:39.729Z,5.68
2023-05-04T15:10:08.126Z,3.53
2023-05-04T15:12:36.050Z,3.35
2023-05-04T15:15:02.911Z,2.90
2023-05-04T15:17:30.893Z,3.70
2023-05-04T15:19:57.511Z,3.58
2023-05-04T15:22:24.194Z,5.28
2023-05-04T15:24:51.517Z,5.38
2023-05-04T15:27:18.164Z,6.75
2023-05-04T15:29:44.763Z,2.42
2023-05-04T15:32:11.670Z,2.47
2023-05-04T15:34:38.292Z,2.55
2023-05-04T15:37:05.055Z,3.55
2023-05-04T15:39:31.646Z,4.80
2023-05-04T15:41:58.483Z,2.47
2023-05-04T15:44:27.551Z,3.28
2023-05-04T15:46:54.148Z,3.50
2023-05-04T15:49:20.846Z,2.50
2023-05-04T15:51:47.675Z,3.40
2023-05-04T15:54:14.622Z,4.00
2023-05-04T15:56:41.651Z,2.30
2023-05-04T15:59:08.588Z,3.05
2023-05-04T16:01:35.241Z,2.05
2023-05-04T16:04:02.168Z,3.45
2023-05-04T16:06:29.081Z,2.65
2023-05-04T16:08:55.984Z,2.00
2023-05-04T16:11:22.740Z,2.33
2023-05-04T16:13:49.439Z,3.65
2023-05-04T16:16:16.515Z,3.13
2023-05-04T16:18:43.386Z,3.65
2023-05-04T16:21:10.125Z,2.13
2023-05-04T16:23:36.748Z,1.83
2023-05-04T16:26:03.568Z,2.75
2023-05-04T16:28:30.289Z,3.13
2023-05-04T16:30:57.819Z,2.97
2023-05-04T16:33:26.043Z,2.15
2023-05-04T16:35:52.930Z,2.35
2023-05-04T16:38:19.775Z,2.20
2023-05-04T16:40:46.509Z,3.50
2023-05-04T16:43:13.234Z,2.03
2023-05-04T16:45:39.918Z,2.28
2023-05-04T16:48:06.800Z,2.45
2023-05-04T16:50:33.509Z,2.25
2023-05-04T16:53:00.506Z,2.30
2023-05-04T16:55:27.175Z,2.90
2023-05-04T16:57:57.396Z,2.60
2023-05-04T17:00:25.008Z,2.78
2023-05-04T17:02:52.677Z,2.65
2023-05-04T17:05:20.370Z,2.65
2023-05-04T17:07:47.187Z,4.50
2023-05-04T17:10:14.874Z,2.60
2023-05-04T17:12:42.281Z,3.55
2023-05-04T17:15:09.795Z,5.72
2023-05-04T17:17:37.085Z,4.88
2023-05-04T17:20:04.196Z,3.88
2023-05-04T17:22:31.222Z,3.03
2023-05-04T17:24:57.807Z,2.78
2023-05-04T17:27:24.556Z,2.65
2023-05-04T17:29:51.514Z,6.85
2023-05-04T17:32:18.173Z,4.05
2023-05-04T17:34:44.794Z,2.63
2023-05-04T17:37:11.445Z,4.35
2023-05-04T17:39:38.012Z,4.80
2023-05-04T17:42:04.806Z,2.85
2023-05-04T17:44:32.795Z,4.53
2023-05-04T17:47:00.136Z,6.28
2023-05-04T17:49:26.812Z,4.15
2023-05-04T17:51:53.412Z,3.63
2023-05-04T17:54:20.096Z,3.22
2023-05-04T17:56:46.742Z,6.88
2023-05-04T17:59:13.938Z,4.95
2023-05-04T18:01:40.628Z,5.20
2023-05-04T18:04:07.256Z,5.05
2023-05-04T18:06:34.022Z,2.90
2023-05-04T18:09:00.966Z,5.75
2023-05-04T18:11:27.780Z,4.18
2023-05-04T18:13:56.289Z,4.55
2023-05-04T18:16:24.280Z,4.25
2023-05-04T18:18:51.315Z,4.03
2023-05-04T18:21:18.154Z,3.60
2023-05-04T18:23:44.787Z,5.30
2023-05-04T18:26:17.875Z,3.90
2023-05-04T18:28:44.537Z,3.75
2023-05-04T18:31:11.140Z,5.70
2023-05-04T18:33:38.227Z,6.50
2023-05-04T18:36:05.307Z,3.97
2023-05-04T18:38:32.003Z,3.42
2023-05-04T18:40:58.859Z,4.38
2023-05-04T18:43:25.730Z,4.68
2023-05-04T18:45:52.361Z,3.30
2023-05-04T18:48:19.227Z,3.40
2023-05-04T18:50:56.138Z,5.60
2023-05-04T18:53:24.362Z,4.07
2023-05-04T18:56:04.558Z,5.28
2023-05-04T18:58:31.752Z,5.00
2023-05-04T19:00:58.616Z,4.78
2023-05-04T19:03:25.672Z,4.05
2023-05-04T19:05:52.676Z,4.03
2023-05-04T19:08:19.347Z,4.22
2023-05-04T19:10:46.513Z,5.13
2023-05-04T19:13:13.159Z,7.85
2023-05-04T19:15:40.087Z,8.50
2023-05-04T19:18:07.029Z,10.80
2023-05-04T19:20:36.823Z,9.80
2023-05-04T19:23:03.592Z,13.07
2023-05-04T19:25:34.719Z,9.38
2023-05-04T19:28:09.131Z,6.13
2023-05-04T19:30:36.996Z,7.78
2023-05-04T19:33:04.290Z,7.32
2023-05-04T19:35:31.026Z,5.15
2023-05-04T19:37:57.762Z,6.07
2023-05-04T19:40:24.398Z,4.50
2023-05-04T19:42:51.135Z,6.45
2023-05-04T19:45:17.786Z,6.07
2023-05-04T19:47:45.480Z,3.83
2023-05-04T19:50:14.346Z,4.05
2023-05-04T19:52:41.231Z,5.10
2023-05-04T19:55:08.947Z,8.38
2023-05-04T19:57:35.741Z,7.95
2023-05-04T20:00:02.934Z,11.43
2023-05-04T20:02:38.638Z,9.40
2023-05-04T20:05:05.858Z,8.32
2023-05-04T20:07:32.729Z,4.35
2023-05-04T20:09:59.505Z,5.95
2023-05-04T20:12:29.010Z,7.95
2023-05-04T20:14:55.959Z,5.20
2023-05-04T20:17:23.368Z,10.18
2023-05-04T20:19:50.286Z,9.55
2023-05-04T20:22:17.253Z,5.22
2023-05-04T20:24:43.980Z,6.80
2023-05-04T20:27:10.659Z,5.28
2023-05-04T20:29:37.281Z,8.82
2023-05-04T20:32:05.148Z,5.18
2023-05-04T20:34:31.989Z,6.25
2023-05-04T20:36:59.048Z,6.90
2023-05-04T20:39:25.839Z,7.57
2023-05-04T20:41:52.910Z,6.93
2023-05-04T20:44:19.786Z,7.30
2023-05-04T20:46:46.644Z,6.28
2023-05-04T20:49:13.757Z,5.35
2023-05-04T20:51:40.621Z,5.38
2023-05-04T20:54:07.297Z,6.38
2023-05-04T20:56:33.923Z,4.70
2023-05-04T20:59:00.956Z,5.57
2023-05-04T21:01:29.486Z,5.28
2023-05-04T21:03:56.747Z,7.57
2023-05-04T21:06:24.316Z,6.85
2023-05-04T21:08:50.908Z,10.45
2023-05-04T21:11:17.504Z,8.52
2023-05-04T21:13:44.145Z,7.38
2023-05-04T21:16:11.331Z,11.95
2023-05-04T21:18:38.012Z,9.13
2023-05-04T21:21:05.066Z,9.35
2023-05-04T21:23:34.725Z,9.63
2023-05-04T21:26:04.714Z,7.85
2023-05-04T21:28:32.176Z,8.77
2023-05-04T21:30:59.078Z,8.18
2023-05-04T21:33:25.871Z,7.93
2023-05-04T21:35:52.658Z,6.97
2023-05-04T21:38:21.833Z,8.73
2023-05-04T21:40:48.983Z,7.40
2023-05-04T21:43:15.742Z,6.60
2023-05-04T21:45:42.450Z,6.82
2023-05-04T21:48:09.266Z,8.30
2023-05-04T21:50:35.883Z,9.82
2023-05-04T21:53:02.550Z,7.97
2023-05-04T21:55:30.264Z,9.80
2023-05-04T21:57:57.203Z,12.05
2023-05-04T22:00:24.107Z,6.88
2023-05-04T22:02:53.864Z,8.05
2023-05-04T22:05:22.149Z,12.88
2023-05-04T22:07:50.414Z,9.43
2023-05-04T22:10:17.885Z,8.23
2023-05-04T22:12:44.620Z,7.20
2023-05-04T22:15:11.559Z,8.15
2023-05-04T22:17:38.397Z,6.95
2023-05-04T22:20:06.138Z,7.57
2023-05-04T22:22:32.838Z,6.28
2023-05-04T22:24:59.399Z,7.38
2023-05-04T22:27:26.000Z,7.43
2023-05-04T22:29:53.467Z,9.80
2023-05-04T22:32:20.228Z,7.35
2023-05-04T22:34:47.328Z,7.25
2023-05-04T22:37:14.318Z,8.98
2023-05-04T22:39:41.301Z,14.50
2023-05-04T22:42:08.113Z,7.93
2023-05-04T22:44:34.834Z,9.52
2023-05-04T22:47:01.457Z,8.65
2023-05-04T22:49:28.177Z,7.78
2023-05-04T22:51:54.798Z,8.27
2023-05-04T22:54:21.429Z,7.20
2023-05-04T22:56:48.335Z,6.78
2023-05-04T22:59:15.096Z,8.68
2023-05-04T23:01:43.586Z,7.68
2023-05-04T23:04:11.576Z,8.20
2023-05-04T23:06:38.643Z,8.88
2023-05-04T23:09:05.433Z,9.93
2023-05-04T23:11:32.403Z,8.65
2023-05-04T23:13:59.248Z,12.73
2023-05-04T23:16:26.064Z,10.52
2023-05-04T23:18:52.884Z,8.48
2023-05-04T23:21:19.810Z,10.95
2023-05-04T23:23:46.673Z,8.23
2023-05-04T23:26:13.287Z,7.20
2023-05-04T23:28:39.974Z,7.38
2023-05-04T23:31:06.758Z,10.05
2023-05-04T23:33:33.404Z,7.85
2023-05-04T23:36:00.111Z,8.38
2023-05-04T23:38:26.952Z,8.02
2023-05-04T23:40:53.896Z,9.35
2023-05-04T23:43:23.697Z,7.38
2023-05-04T23:45:51.038Z,7.80
2023-05-04T23:48:17.962Z,7.70
2023-05-04T23:50:54.254Z,7.00
2023-05-04T23:53:20.913Z,6.68
2023-05-04T23:55:47.663Z,6.88
2023-05-04T23:58:14.574Z,6.45
